Time;durP1;ratioP1;P1;durP2;ratioP2;P2;SDS_P1;SDS_P2;PMS_P1;PMS_P2;Temp;Humidity;BMP_temperature;BMP_pressure;BME280_temperature;BME280_humidity;BME280_pressure;Samples;Min_cycle;Max_cycle;Signal;HPM_P1;HPM_P2
2023/10/15 00:00:18;;;;;;;;;;;17.20;56.50;;;;;;4954029;28;87607;-46
2023/10/15 00:02:45;;;;;;;;;;;17.20;56.50;;;;;;4951380;28;87186;-43
2023/10/15 00:05:12;;;;;;;;;;;17.20;56.40;;;;;;4953421;28;88886;-42
2023/10/15 00:07:41;;;;;;;;;;;17.10;56.40;;;;;;4952681;28;89437;-45
2023/10/15 00:10:10;;;;;;;;;;;17.10;56.40;;;;;;4951896;28;86456;-45
2023/10/15 00:12:35;;;;;;;;;;;17.10;56.40;;;;;;4950980;28;88367;-44
2023/10/15 00:15:01;;;;;;;;;;;17.10;56.40;;;;;;4954075;28;88215;-46
2023/10/15 00:17:27;;;;;;;;;;;17.10;56.40;;;;;;4954814;28;89087;-42
2023/10/15 00:19:53;;;;;;;;;;;17.10;56.50;;;;;;4952453;28;87991;-44
2023/10/15 00:22:19;;;;;;;;;;;17.10;56.40;;;;;;4953530;28;87167;-43
2023/10/15 00:24:45;;;;;;;;;;;17.10;56.40;;;;;;4951580;28;88940;-46
2023/10/15 00:27:10;;;;;;;;;;;17.10;56.40;;;;;;4953971;28;88961;-45
2023/10/15 00:29:36;;;;;;;;;;;17.10;56.40;;;;;;4952216;28;87199;-42
2023/10/15 00:32:03;;;;;;;;;;;17.10;56.40;;;;;;4951602;28;87671;-45
2023/10/15 00:34:30;;;;;;;;;;;17.10;56.40;;;;;;4953202;28;87330;-43
2023/10/15 00:36:55;;;;;;;;;;;17.10;56.40;;;;;;4952715;28;87070;-42
2023/10/15 00:39:21;;;;;;;;;;;17.00;56.40;;;;;;4954403;28;87308;-45
2023/10/15 00:41:47;;;;;;;;;;;17.00;56.40;;;;;;4953130;28;88066;-47
2023/10/15 00:44:14;;;;;;;;;;;17.00;56.40;;;;;;4953277;28;88425;-43
2023/10/15 00:46:40;;;;;;;;;;;17.00;56.40;;;;;;4950953;28;88340;-45
2023/10/15 00:49:10;;;;;;;;;;;17.00;56.40;;;;;;4955694;28;87531;-44
2023/10/15 00:51:40;;;;;;;;;;;17.00;56.40;;;;;;4956358;28;87348;-46
2023/10/15 00:54:11;;;;;;;;;;;17.00;56.40;;;;;;4953733;28;89204;-45
2023/10/15 00:56:36;;;;;;;;;;;17.00;56.40;;;;;;4954640;28;87680;-45
2023/10/15 00:59:08;;;;;;;;;;;17.00;56.40;;;;;;4956994;28;86703;-44
2023/10/15 01:01:35;;;;;;;;;;;17.00;56.40;;;;;;4959952;28;89352;-45
2023/10/15 01:04:02;;;;;;;;;;;17.00;56.40;;;;;;4953680;28;87590;-43
2023/10/15 01:06:44;;;;;;;;;;;17.00;56.40;;;;;;4953122;28;89502;-45
2023/10/15 01:09:18;;;;;;;;;;;16.90;56.40;;;;;;4954494;28;87201;-44
2023/10/15 01:11:44;;;;;;;;;;;17.00;56.40;;;;;;4954491;28;87899;-45
2023/10/15 01:14:10;;;;;;;;;;;16.90;56.40;;;;;;4955692;28;87934;-43
2023/10/15 01:16:37;;;;;;;;;;;16.90;56.40;;;;;;4955168;28;87192;-45
2023/10/15 01:21:53;;;;;;;;;;;16.90;56.30;;;;;;4951069;28;87293;-48
2023/10/15 01:24:22;;;;;;;;;;;16.90;56.40;;;;;;4957151;28;86400;-43
2023/10/15 01:27:30;;;;;;;;;;;16.90;56.40;;;;;;4953591;28;87979;-46
2023/10/15 01:29:41;;;;;;;;;;;16.90;56.40;;;;;;4950442;28;87085;-42
2023/10/15 01:35:10;;;;;;;;;;;16.90;56.40;;;;;;4947835;28;88183;-43
2023/10/15 01:37:43;;;;;;;;;;;16.90;56.40;;;;;;4953384;28;87048;-45
2023/10/15 01:40:37;;;;;;;;;;;16.80;56.40;;;;;;4955687;28;87280;-46
2023/10/15 01:42:58;;;;;;;;;;;16.90;56.40;;;;;;4953758;28;87742;-43
2023/10/15 01:45:34;;;;;;;;;;;16.80;56.40;;;;;;4956531;28;87228;-46
2023/10/15 01:48:13;;;;;;;;;;;16.80;56.40;;;;;;4956090;28;87427;-47
2023/10/15 01:50:46;;;;;;;;;;;16.80;56.40;;;;;;4955315;28;86453;-44
2023/10/15 01:53:12;;;;;;;;;;;16.80;56.40;;;;;;4956726;28;88187;-45
2023/10/15 01:55:52;;;;;;;;;;;16.80;56.40;;;;;;4953016;28;89550;-46
2023/10/15 01:58:19;;;;;;;;;;;16.70;56.40;;;;;;4953018;28;88070;-48
2023/10/15 02:00:44;;;;;;;;;;;16.70;56.40;;;;;;4953437;28;89960;-45
2023/10/15 02:03:13;;;;;;;;;;;16.70;56.40;;;;;;4955334;28;89362;-41
2023/10/15 02:05:41;;;;;;;;;;;16.70;56.40;;;;;;4954195;28;87876;-43
2023/10/15 02:08:07;;;;;;;;;;;16.70;56.40;;;;;;4954311;28;87516;-43
2023/10/15 02:10:38;;;;;;;;;;;16.70;56.40;;;;;;4958152;28;89335;-47
2023/10/15 02:13:04;;;;;;;;;;;16.70;56.40;;;;;;4952810;28;89102;-45
2023/10/15 02:15:39;;;;;;;;;;;16.70;56.40;;;;;;4956876;28;86413;-45
2023/10/15 02:18:07;;;;;;;;;;;16.70;56.40;;;;;;4955230;28;87098;-46
2023/10/15 02:20:44;;;;;;;;;;;16.70;56.40;;;;;;4952862;28;88819;-47
2023/10/15 02:23:11;;;;;;;;;;;16.60;56.30;;;;;;4953254;28;90267;-44
2023/10/15 02:25:46;;;;;;;;;;;16.70;56.40;;;;;;4953928;28;87168;-46
2023/10/15 02:28:20;;;;;;;;;;;16.70;56.40;;;;;;4952687;28;89306;-45
2023/10/15 02:30:48;;;;;;;;;;;16.60;56.30;;;;;;4958591;28;89476;-45
2023/10/15 02:33:17;;;;;;;;;;;16.60;56.40;;;;;;4953272;28;86958;-48
2023/10/15 02:35:45;;;;;;;;;;;16.60;56.40;;;;;;4955402;28;87789;-48
2023/10/15 02:38:11;;;;;;;;;;;16.60;56.40;;;;;;4953121;28;87152;-44
2023/10/15 02:40:57;;;;;;;;;;;16.60;56.40;;;;;;4955285;28;87421;-46
2023/10/15 02:43:29;;;;;;;;;;;16.60;56.40;;;;;;4952581;28;88528;-46
2023/10/15 02:45:56;;;;;;;;;;;16.50;56.40;;;;;;4954815;28;87210;-43
2023/10/15 02:48:22;;;;;;;;;;;16.60;56.50;;;;;;4951932;28;88964;-46
2023/10/15 02:51:07;;;;;;;;;;;16.50;56.40;;;;;;4955097;28;89297;-45
2023/10/15 02:53:38;;;;;;;;;;;16.50;56.40;;;;;;4957846;28;86993;-45
2023/10/15 02:56:10;;;;;;;;;;;16.50;56.40;;;;;;4951913;28;89864;-45
2023/10/15 02:58:39;;;;;;;;;;;16.50;56.50;;;;;;4954226;28;87176;-44
2023/10/15 03:01:24;;;;;;;;;;;16.50;56.40;;;;;;4954569;28;87423;-45
2023/10/15 03:03:52;;;;;;;;;;;16.50;56.40;;;;;;4953329;28;87191;-41
2023/10/15 03:06:31;;;;;;;;;;;16.50;56.40;;;;;;4953173;28;86401;-46
2023/10/15 03:08:57;;;;;;;;;;;16.40;56.30;;;;;;4953466;28;88434;-43
2023/10/15 03:11:24;;;;;;;;;;;16.40;56.40;;;;;;4952321;28;88164;-45
2023/10/15 03:13:51;;;;;;;;;;;16.40;56.40;;;;;;4953409;28;88109;-48
2023/10/15 03:16:18;;;;;;;;;;;16.40;56.40;;;;;;4955124;28;88996;-44
2023/10/15 03:18:48;;;;;;;;;;;16.40;56.40;;;;;;4954768;28;87332;-47
2023/10/15 03:21:16;;;;;;;;;;;16.40;56.40;;;;;;4952947;28;87410;-46
2023/10/15 03:23:42;;;;;;;;;;;16.40;56.40;;;;;;4953079;28;88093;-45
2023/10/15 03:26:09;;;;;;;;;;;16.40;56.40;;;;;;4954443;28;87816;-44
2023/10/15 03:28:36;;;;;;;;;;;16.30;56.30;;;;;;4951668;28;88729;-46
2023/10/15 03:31:02;;;;;;;;;;;16.30;56.30;;;;;;4952179;28;87337;-44
2023/10/15 03:33:30;;;;;;;;;;;16.30;56.30;;;;;;4955042;28;87311;-47
2023/10/15 03:35:56;;;;;;;;;;;16.30;56.30;;;;;;4953420;28;87515;-43
2023/10/15 03:38:32;;;;;;;;;;;16.30;56.30;;;;;;4955747;28;88815;-46
2023/10/15 03:41:39;;;;;;;;;;;16.30;56.30;;;;;;4951704;28;89754;-45
2023/10/15 03:43:52;;;;;;;;;;;16.30;56.30;;;;;;4949635;28;88802;-50
2023/10/15 03:46:20;;;;;;;;;;;16.30;56.30;;;;;;4953750;28;87199;-46
2023/10/15 03:48:50;;;;;;;;;;;16.20;56.30;;;;;;4953118;28;87499;-45
2023/10/15 03:51:20;;;;;;;;;;;16.20;56.30;;;;;;4951302;28;88650;-43
2023/10/15 03:53:49;;;;;;;;;;;16.30;56.40;;;;;;4951714;28;87236;-43
2023/10/15 03:56:18;;;;;;;;;;;16.20;56.30;;;;;;4953712;28;86528;-45
2023/10/15 03:58:43;;;;;;;;;;;16.20;56.30;;;;;;4953454;28;86937;-45
2023/10/15 04:03:35;;;;;;;;;;;16.20;56.40;;;;;;4951529;28;89131;-45
2023/10/15 04:06:05;;;;;;;;;;;16.20;56.30;;;;;;4954319;28;87104;-43
2023/10/15 04:08:31;;;;;;;;;;;16.20;56.30;;;;;;4952479;28;87852;-47
2023/10/15 04:10:57;;;;;;;;;;;16.10;56.30;;;;;;4952360;28;87286;-42
2023/10/15 04:13:26;;;;;;;;;;;16.20;56.40;;;;;;4953526;28;88247;-46
2023/10/15 04:15:52;;;;;;;;;;;16.10;56.30;;;;;;4951143;28;88002;-48
2023/10/15 04:18:17;;;;;;;;;;;16.10;56.30;;;;;;4954143;28;87982;-43
2023/10/15 04:20:43;;;;;;;;;;;16.10;56.30;;;;;;4952491;28;86459;-49
2023/10/15 04:23:24;;;;;;;;;;;16.10;56.30;;;;;;4955510;28;87189;-44
2023/10/15 04:25:50;;;;;;;;;;;16.10;56.20;;;;;;4951027;28;87447;-45
2023/10/15 04:28:18;;;;;;;;;;;16.10;56.30;;;;;;4953158;28;88776;-46
2023/10/15 04:30:46;;;;;;;;;;;16.10;56.30;;;;;;4952009;28;89689;-42
2023/10/15 04:33:14;;;;;;;;;;;16.10;56.30;;;;;;4952076;28;87778;-43
2023/10/15 04:35:43;;;;;;;;;;;16.00;56.90;;;;;;4954152;28;87357;-45
2023/10/15 04:38:08;;;;;;;;;;;16.00;56.30;;;;;;4952702;28;88487;-45
2023/10/15 04:43:24;;;;;;;;;;;16.00;56.30;;;;;;4956403;28;88193;-45
2023/10/15 04:45:50;;;;;;;;;;;16.00;56.30;;;;;;4952528;28;86396;-44
2023/10/15 04:48:16;;;;;;;;;;;16.00;56.30;;;;;;4953795;28;87518;-45
2023/10/15 04:50:43;;;;;;;;;;;15.90;56.30;;;;;;4947356;28;88305;-44
2023/10/15 04:53:13;;;;;;;;;;;16.00;56.30;;;;;;4952506;28;88151;-42
2023/10/15 04:55:42;;;;;;;;;;;16.00;56.30;;;;;;4950825;28;90076;-43
2023/10/15 04:58:08;;;;;;;;;;;15.90;56.20;;;;;;4950741;28;88104;-47
2023/10/15 05:00:35;;;;;;;;;;;15.90;56.20;;;;;;4951303;28;87112;-45
2023/10/15 05:03:01;;;;;;;;;;;15.90;56.30;;;;;;4953757;28;87398;-42
2023/10/15 05:05:26;;;;;;;;;;;15.90;56.20;;;;;;4956653;28;88101;-45
2023/10/15 05:07:57;;;;;;;;;;;15.90;56.30;;;;;;4951167;28;88352;-43
2023/10/15 05:10:23;;;;;;;;;;;15.90;56.30;;;;;;4952495;28;88971;-44
2023/10/15 05:12:51;;;;;;;;;;;15.90;56.30;;;;;;4954071;28;87171;-47
2023/10/15 05:15:18;;;;;;;;;;;15.90;56.30;;;;;;4953000;28;87402;-42
2023/10/15 05:17:46;;;;;;;;;;;15.80;56.30;;;;;;4950124;28;90360;-43
2023/10/15 05:20:13;;;;;;;;;;;15.80;56.30;;;;;;4953055;28;88193;-44
2023/10/15 05:22:42;;;;;;;;;;;15.80;56.40;;;;;;4952867;28;87415;-43
2023/10/15 05:25:17;;;;;;;;;;;15.80;56.40;;;;;;4951383;28;87926;-42
2023/10/15 05:27:43;;;;;;;;;;;15.80;56.40;;;;;;4953850;28;87206;-47
2023/10/15 05:30:10;;;;;;;;;;;15.80;56.40;;;;;;4952176;28;87987;-43
2023/10/15 05:32:36;;;;;;;;;;;15.80;56.40;;;;;;4952523;28;87119;-45
2023/10/15 05:35:02;;;;;;;;;;;15.70;56.30;;;;;;4952047;28;87640;-46
2023/10/15 05:37:27;;;;;;;;;;;15.80;56.40;;;;;;4951349;28;89101;-47
2023/10/15 05:39:53;;;;;;;;;;;15.70;56.30;;;;;;4954834;28;87113;-47
2023/10/15 05:42:18;;;;;;;;;;;15.70;56.40;;;;;;4956412;28;88172;-43
2023/10/15 05:44:44;;;;;;;;;;;15.70;56.40;;;;;;4956325;28;88161;-46
2023/10/15 05:47:10;;;;;;;;;;;15.70;56.30;;;;;;4954533;28;87214;-43
2023/10/15 05:49:38;;;;;;;;;;;15.70;56.40;;;;;;4959321;28;87749;-45
2023/10/15 05:52:06;;;;;;;;;;;15.70;56.40;;;;;;4956536;28;87179;-41
2023/10/15 05:54:34;;;;;;;;;;;15.70;56.50;;;;;;4954321;28;88950;-44
2023/10/15 05:57:02;;;;;;;;;;;15.70;56.40;;;;;;4954366;28;88613;-44
2023/10/15 05:59:27;;;;;;;;;;;15.70;56.40;;;;;;4955876;28;86867;-43
2023/10/15 06:01:53;;;;;;;;;;;15.70;56.30;;;;;;4954837;28;87296;-42
2023/10/15 06:04:19;;;;;;;;;;;15.70;56.30;;;;;;4950739;28;87975;-46
2023/10/15 06:06:44;;;;;;;;;;;15.70;56.40;;;;;;4956783;28;88035;-48
2023/10/15 06:09:11;;;;;;;;;;;15.70;56.30;;;;;;4953791;28;87533;-48
2023/10/15 06:11:37;;;;;;;;;;;15.60;56.40;;;;;;4960666;28;87960;-42
2023/10/15 06:14:04;;;;;;;;;;;15.60;56.40;;;;;;4951884;28;87582;-45
2023/10/15 06:16:30;;;;;;;;;;;15.70;56.40;;;;;;4954964;28;89795;-46
2023/10/15 06:18:55;;;;;;;;;;;15.70;56.40;;;;;;4954102;28;87131;-45
2023/10/15 06:21:21;;;;;;;;;;;15.60;56.40;;;;;;4949959;28;90707;-43
2023/10/15 06:23:46;;;;;;;;;;;15.70;56.40;;;;;;4955821;28;88032;-43
2023/10/15 06:26:13;;;;;;;;;;;15.70;56.50;;;;;;4956217;28;88057;-42
2023/10/15 06:28:38;;;;;;;;;;;15.60;56.40;;;;;;4955941;28;87300;-42
2023/10/15 06:31:04;;;;;;;;;;;15.60;56.50;;;;;;4954087;28;88222;-45
2023/10/15 06:33:30;;;;;;;;;;;15.60;56.40;;;;;;4958528;28;88226;-43
2023/10/15 06:35:57;;;;;;;;;;;15.60;56.40;;;;;;4954150;28;87974;-44
2023/10/15 06:38:22;;;;;;;;;;;15.70;56.50;;;;;;4954226;28;87048;-44
2023/10/15 06:40:48;;;;;;;;;;;15.60;56.40;;;;;;4954483;28;88188;-45
2023/10/15 06:43:15;;;;;;;;;;;15.60;56.60;;;;;;4963262;28;88074;-43
2023/10/15 06:45:40;;;;;;;;;;;15.60;56.60;;;;;;4951928;28;87281;-44
2023/10/15 06:48:06;;;;;;;;;;;15.60;56.60;;;;;;4955613;28;87380;-46
2023/10/15 06:50:33;;;;;;;;;;;15.60;56.60;;;;;;4958346;28;89791;-44
2023/10/15 06:53:01;;;;;;;;;;;15.60;56.60;;;;;;4952565;28;87176;-47
2023/10/15 06:55:27;;;;;;;;;;;15.60;56.60;;;;;;4953648;28;90390;-45
2023/10/15 06:57:53;;;;;;;;;;;15.60;56.60;;;;;;4953134;28;87107;-49
2023/10/15 07:00:22;;;;;;;;;;;15.60;56.60;;;;;;4957028;28;88908;-47
2023/10/15 07:02:48;;;;;;;;;;;15.60;56.60;;;;;;4951517;28;87882;-45
2023/10/15 07:05:16;;;;;;;;;;;15.60;56.60;;;;;;4952904;28;87218;-46
2023/10/15 07:07:45;;;;;;;;;;;15.60;56.60;;;;;;4955736;28;87322;-44
2023/10/15 07:10:12;;;;;;;;;;;15.60;56.70;;;;;;4952205;28;88099;-44
2023/10/15 07:12:37;;;;;;;;;;;15.60;56.70;;;;;;4952481;28;87289;-45
2023/10/15 07:15:05;;;;;;;;;;;15.60;56.80;;;;;;4958194;28;87336;-45
2023/10/15 07:17:30;;;;;;;;;;;15.60;56.90;;;;;;4945902;28;88974;-46
2023/10/15 07:19:56;;;;;;;;;;;15.60;56.80;;;;;;4951143;28;88418;-45
2023/10/15 07:22:22;;;;;;;;;;;15.60;56.80;;;;;;4952048;28;88106;-47
2023/10/15 07:24:47;;;;;;;;;;;15.60;56.90;;;;;;4954237;28;87268;-44
2023/10/15 07:27:13;;;;;;;;;;;15.60;56.90;;;;;;4952175;28;87420;-48
2023/10/15 07:29:39;;;;;;;;;;;15.60;56.90;;;;;;4955144;28;88293;-46
2023/10/15 07:32:05;;;;;;;;;;;15.60;57.00;;;;;;4952346;28;87157;-47
2023/10/15 07:34:30;;;;;;;;;;;15.60;56.90;;;;;;4953308;28;87127;-42
2023/10/15 07:36:56;;;;;;;;;;;15.60;56.90;;;;;;4953154;28;87770;-44
2023/10/15 07:39:25;;;;;;;;;;;15.60;56.90;;;;;;4951148;28;87294;-43
2023/10/15 07:41:51;;;;;;;;;;;15.60;56.80;;;;;;4954596;28;87963;-47
2023/10/15 07:44:17;;;;;;;;;;;15.70;56.90;;;;;;4949632;28;88092;-46
2023/10/15 07:46:43;;;;;;;;;;;15.60;56.80;;;;;;4955894;28;88288;-44
2023/10/15 07:49:10;;;;;;;;;;;15.70;56.90;;;;;;4954163;28;88873;-45
2023/10/15 07:51:36;;;;;;;;;;;15.70;56.90;;;;;;4952603;28;87152;-43
2023/10/15 07:54:03;;;;;;;;;;;15.60;56.90;;;;;;4952396;28;87912;-43
2023/10/15 07:56:29;;;;;;;;;;;15.60;56.90;;;;;;4955168;28;89320;-45
2023/10/15 07:58:54;;;;;;;;;;;15.60;56.90;;;;;;4956157;28;87130;-46
2023/10/15 08:01:20;;;;;;;;;;;15.70;57.00;;;;;;4953916;28;88228;-44
2023/10/15 08:03:45;;;;;;;;;;;15.70;57.00;;;;;;4953010;28;88017;-46
2023/10/15 08:06:11;;;;;;;;;;;15.60;57.10;;;;;;4954071;28;87599;-45
2023/10/15 08:08:37;;;;;;;;;;;15.60;57.10;;;;;;4951237;28;88914;-43
2023/10/15 08:11:02;;;;;;;;;;;15.60;57.10;;;;;;4953466;28;87239;-45
2023/10/15 08:13:28;;;;;;;;;;;15.60;57.10;;;;;;4951407;28;88527;-43
2023/10/15 08:15:54;;;;;;;;;;;15.60;57.10;;;;;;4950849;28;89585;-45
2023/10/15 08:18:20;;;;;;;;;;;15.70;57.30;;;;;;4954244;28;87319;-44
2023/10/15 08:20:46;;;;;;;;;;;15.60;57.20;;;;;;4957066;28;87736;-47
2023/10/15 08:23:11;;;;;;;;;;;15.70;57.30;;;;;;4950508;28;87550;-46
2023/10/15 08:25:37;;;;;;;;;;;15.60;57.30;;;;;;4958019;28;87464;-47
2023/10/15 08:28:02;;;;;;;;;;;15.60;57.30;;;;;;4951520;28;87736;-47
2023/10/15 08:30:30;;;;;;;;;;;15.60;57.30;;;;;;4953459;28;88996;-45
2023/10/15 08:32:55;;;;;;;;;;;15.60;57.30;;;;;;4946801;28;89079;-42
2023/10/15 08:35:21;;;;;;;;;;;15.60;57.30;;;;;;4957133;28;88196;-44
2023/10/15 08:37:47;;;;;;;;;;;15.70;57.40;;;;;;4951405;28;87559;-46
2023/10/15 08:40:17;;;;;;;;;;;15.70;57.40;;;;;;4958558;28;87345;-44
2023/10/15 08:43:05;;;;;;;;;;;15.70;57.40;;;;;;4952410;28;87203;-50
2023/10/15 08:45:31;;;;;;;;;;;15.70;57.40;;;;;;4953605;28;87610;-46
2023/10/15 08:47:57;;;;;;;;;;;15.70;57.40;;;;;;4953332;28;88183;-47
2023/10/15 08:50:23;;;;;;;;;;;15.60;57.40;;;;;;4948201;28;86865;-45
2023/10/15 08:52:49;;;;;;;;;;;15.70;57.50;;;;;;4954941;28;87387;-45
2023/10/15 08:55:15;;;;;;;;;;;15.70;57.50;;;;;;4953046;28;87933;-45
2023/10/15 08:57:41;;;;;;;;;;;15.70;57.40;;;;;;4951539;28;88111;-45
2023/10/15 09:00:25;;;;;;;;;;;15.70;57.40;;;;;;4953671;28;88433;-42
2023/10/15 09:02:52;;;;;;;;;;;15.70;57.50;;;;;;4953698;28;89365;-45
2023/10/15 09:05:18;;;;;;;;;;;15.70;57.40;;;;;;4952282;28;87595;-42
2023/10/15 09:07:43;;;;;;;;;;;15.70;57.40;;;;;;4952045;28;88102;-45
2023/10/15 09:10:13;;;;;;;;;;;15.70;57.50;;;;;;4951793;28;88979;-45
2023/10/15 09:12:39;;;;;;;;;;;15.70;57.40;;;;;;4956087;28;88469;-47
2023/10/15 09:15:15;;;;;;;;;;;15.70;57.40;;;;;;4954393;28;86897;-45
2023/10/15 09:17:49;;;;;;;;;;;15.70;57.40;;;;;;4954966;28;87926;-45
2023/10/15 09:20:17;;;;;;;;;;;15.70;57.40;;;;;;4955088;28;88778;-43
2023/10/15 09:22:44;;;;;;;;;;;15.70;57.40;;;;;;4953679;28;90459;-43
2023/10/15 09:25:14;;;;;;;;;;;15.70;57.40;;;;;;4955681;28;87256;-43
2023/10/15 09:27:45;;;;;;;;;;;15.70;57.40;;;;;;4954622;28;87262;-45
2023/10/15 09:30:18;;;;;;;;;;;15.70;57.30;;;;;;4957831;28;87307;-43
2023/10/15 09:32:45;;;;;;;;;;;15.80;57.50;;;;;;4955431;28;88675;-43
2023/10/15 09:35:13;;;;;;;;;;;15.80;57.40;;;;;;4953351;28;88041;-48
2023/10/15 09:37:39;;;;;;;;;;;15.80;57.40;;;;;;4952150;28;87328;-46
2023/10/15 09:40:09;;;;;;;;;;;15.80;57.50;;;;;;4957920;28;87478;-43
2023/10/15 09:42:38;;;;;;;;;;;15.80;57.50;;;;;;4955297;28;89573;-45
2023/10/15 09:45:05;;;;;;;;;;;15.80;57.50;;;;;;4954062;28;87967;-43
2023/10/15 09:47:32;;;;;;;;;;;15.90;57.50;;;;;;4956561;28;89180;-45
2023/10/15 09:49:59;;;;;;;;;;;15.90;57.50;;;;;;4953605;28;87537;-43
2023/10/15 09:52:26;;;;;;;;;;;15.90;57.70;;;;;;4954808;28;87443;-44
2023/10/15 09:54:55;;;;;;;;;;;15.90;57.70;;;;;;4948974;28;89012;-44
2023/10/15 09:57:21;;;;;;;;;;;15.90;57.70;;;;;;4954491;28;87301;-42
2023/10/15 09:59:53;;;;;;;;;;;15.90;58.70;;;;;;4958392;28;87488;-42
2023/10/15 10:02:27;;;;;;;;;;;15.90;61.10;;;;;;4952354;28;88427;-44
2023/10/15 10:05:05;;;;;;;;;;;16.00;61.60;;;;;;4953271;28;87117;-54
2023/10/15 10:07:31;;;;;;;;;;;16.30;60.80;;;;;;4956389;28;88244;-52
2023/10/15 10:10:17;;;;;;;;;;;16.40;60.50;;;;;;4957817;28;88768;-47
2023/10/15 10:13:02;;;;;;;;;;;16.60;61.40;;;;;;4949144;28;89161;-47
2023/10/15 10:15:28;;;;;;;;;;;16.70;61.30;;;;;;4953522;28;91456;-52
2023/10/15 10:17:54;;;;;;;;;;;16.70;60.80;;;;;;4952307;28;87193;-51
2023/10/15 10:20:19;;;;;;;;;;;16.80;60.00;;;;;;4957006;28;87555;-55
2023/10/15 10:22:57;;;;;;;;;;;16.90;59.80;;;;;;4954340;28;88401;-49
2023/10/15 10:25:38;;;;;;;;;;;17.00;59.10;;;;;;4956373;28;87247;-59
2023/10/15 10:28:07;;;;;;;;;;;17.10;58.90;;;;;;4955469;28;87324;-56
2023/10/15 10:30:32;;;;;;;;;;;17.20;59.20;;;;;;4952623;28;88655;-55
2023/10/15 10:33:02;;;;;;;;;;;17.20;58.90;;;;;;4959040;28;87149;-49
2023/10/15 10:35:27;;;;;;;;;;;17.30;58.70;;;;;;4953698;28;88007;-54
2023/10/15 10:38:03;;;;;;;;;;;17.30;59.20;;;;;;4953720;28;88037;-48
2023/10/15 10:40:48;;;;;;;;;;;17.30;59.10;;;;;;4955877;28;90199;-48
2023/10/15 10:43:17;;;;;;;;;;;17.40;60.00;;;;;;4955202;28;88173;-50
2023/10/15 10:45:50;;;;;;;;;;;17.40;59.80;;;;;;4952820;28;87145;-51
2023/10/15 10:48:19;;;;;;;;;;;17.40;59.00;;;;;;4954041;28;88937;-46
2023/10/15 10:50:45;;;;;;;;;;;17.50;59.40;;;;;;4954556;28;87940;-51
2023/10/15 10:53:11;;;;;;;;;;;17.50;58.80;;;;;;4955707;28;87140;-51
2023/10/15 10:55:37;;;;;;;;;;;17.60;58.20;;;;;;4956031;28;87229;-51
2023/10/15 10:58:03;;;;;;;;;;;17.60;59.80;;;;;;4952470;28;87884;-52
2023/10/15 11:00:32;;;;;;;;;;;17.70;59.50;;;;;;4954748;28;87817;-50
2023/10/15 11:02:59;;;;;;;;;;;17.80;58.80;;;;;;4952994;28;89082;-54
2023/10/15 11:05:24;;;;;;;;;;;17.80;58.70;;;;;;4952871;28;87192;-46
2023/10/15 11:07:50;;;;;;;;;;;17.80;58.20;;;;;;4955294;28;87956;-52
2023/10/15 11:10:17;;;;;;;;;;;18.00;58.00;;;;;;4954894;28;87964;-56
2023/10/15 11:12:45;;;;;;;;;;;18.00;57.70;;;;;;4954612;28;87374;-55
2023/10/15 11:15:10;;;;;;;;;;;18.00;57.90;;;;;;4958029;28;87831;-50
2023/10/15 11:17:36;;;;;;;;;;;18.00;57.20;;;;;;4955188;28;87263;-52
2023/10/15 11:20:03;;;;;;;;;;;18.00;57.00;;;;;;4953138;28;88825;-50
2023/10/15 11:22:29;;;;;;;;;;;17.90;56.70;;;;;;4954544;28;88072;-53
2023/10/15 11:24:55;;;;;;;;;;;17.90;56.70;;;;;;4954053;28;88161;-54
2023/10/15 11:27:21;;;;;;;;;;;17.90;56.50;;;;;;4953763;28;88908;-53
2023/10/15 11:29:47;;;;;;;;;;;17.90;57.20;;;;;;4952423;28;89022;-52
2023/10/15 11:32:12;;;;;;;;;;;18.00;57.20;;;;;;4948963;28;87190;-53
2023/10/15 11:34:39;;;;;;;;;;;18.00;56.80;;;;;;4956104;28;87352;-49
2023/10/15 11:37:07;;;;;;;;;;;18.10;56.60;;;;;;4954631;28;88251;-51
2023/10/15 11:39:47;;;;;;;;;;;18.20;56.60;;;;;;4954920;28;88976;-51
2023/10/15 11:42:13;;;;;;;;;;;18.20;56.40;;;;;;4950576;28;88090;-52
2023/10/15 11:44:42;;;;;;;;;;;18.20;56.10;;;;;;4955424;28;87010;-53
2023/10/15 11:47:16;;;;;;;;;;;18.10;56.20;;;;;;4951372;28;87028;-54
2023/10/15 11:49:42;;;;;;;;;;;18.10;55.80;;;;;;4954394;28;88093;-53
2023/10/15 11:52:11;;;;;;;;;;;18.10;55.70;;;;;;4949898;28;88134;-54
2023/10/15 11:54:43;;;;;;;;;;;18.10;55.60;;;;;;4955508;28;90149;-53
2023/10/15 11:57:16;;;;;;;;;;;18.10;56.10;;;;;;4951455;28;88441;-52
2023/10/15 11:59:45;;;;;;;;;;;18.10;55.20;;;;;;4956607;28;87156;-52
2023/10/15 12:02:11;;;;;;;;;;;18.10;55.40;;;;;;4953939;28;88344;-54
2023/10/15 12:04:38;;;;;;;;;;;18.10;55.70;;;;;;4953895;28;87272;-55
2023/10/15 12:07:04;;;;;;;;;;;18.20;55.40;;;;;;4952059;28;87852;-50
2023/10/15 12:09:32;;;;;;;;;;;18.20;55.70;;;;;;4952679;28;87777;-54
2023/10/15 12:11:57;;;;;;;;;;;18.40;55.80;;;;;;4950882;28;87304;-55
2023/10/15 12:14:24;;;;;;;;;;;18.40;55.80;;;;;;4954961;28;87537;-48
2023/10/15 12:16:49;;;;;;;;;;;18.30;56.00;;;;;;4952024;28;88980;-50
2023/10/15 12:19:15;;;;;;;;;;;18.30;55.90;;;;;;4950885;28;87250;-45
2023/10/15 12:21:40;;;;;;;;;;;18.40;55.70;;;;;;4955809;28;87388;-54
2023/10/15 12:24:13;;;;;;;;;;;18.40;55.10;;;;;;4952124;28;87134;-44
2023/10/15 12:26:39;;;;;;;;;;;18.50;55.00;;;;;;4953916;28;88942;-49
2023/10/15 12:29:05;;;;;;;;;;;18.50;54.60;;;;;;4947144;28;88339;-45
2023/10/15 12:31:31;;;;;;;;;;;18.50;55.00;;;;;;4954969;28;88210;-46
2023/10/15 12:33:57;;;;;;;;;;;18.60;55.10;;;;;;4951898;28;87338;-48
2023/10/15 12:36:22;;;;;;;;;;;18.60;54.70;;;;;;4951990;28;88361;-43
2023/10/15 12:38:48;;;;;;;;;;;18.60;54.10;;;;;;4954989;28;87670;-46
2023/10/15 12:41:14;;;;;;;;;;;18.60;54.70;;;;;;4953193;28;88628;-43
2023/10/15 12:43:40;;;;;;;;;;;18.70;54.70;;;;;;4954631;28;88147;-55
2023/10/15 12:46:07;;;;;;;;;;;18.60;54.70;;;;;;4955823;28;89344;-51
2023/10/15 12:48:32;;;;;;;;;;;18.60;54.60;;;;;;4953059;28;88997;-45
2023/10/15 12:50:58;;;;;;;;;;;18.60;55.10;;;;;;4956856;28;87487;-48
2023/10/15 12:53:25;;;;;;;;;;;18.60;54.70;;;;;;4953905;28;87334;-53
2023/10/15 12:55:51;;;;;;;;;;;18.70;54.70;;;;;;4955166;28;89737;-53
2023/10/15 12:58:17;;;;;;;;;;;18.70;54.90;;;;;;4955065;28;86601;-48
2023/10/15 13:00:48;;;;;;;;;;;18.60;55.10;;;;;;4957508;28;88399;-48
2023/10/15 13:03:15;;;;;;;;;;;18.70;55.10;;;;;;4959220;28;88432;-49
2023/10/15 13:05:41;;;;;;;;;;;18.60;54.70;;;;;;4957942;28;88976;-47
2023/10/15 13:08:06;;;;;;;;;;;18.60;54.80;;;;;;4954291;28;87990;-54
2023/10/15 13:10:32;;;;;;;;;;;18.60;55.10;;;;;;4955659;28;87109;-44
2023/10/15 13:12:59;;;;;;;;;;;18.60;55.50;;;;;;4954852;28;88717;-44
2023/10/15 13:15:25;;;;;;;;;;;18.70;55.60;;;;;;4949269;28;88320;-44
2023/10/15 13:17:54;;;;;;;;;;;18.70;55.50;;;;;;4956292;28;87226;-44
2023/10/15 13:20:21;;;;;;;;;;;18.60;55.60;;;;;;4955987;28;88692;-43
2023/10/15 13:22:46;;;;;;;;;;;18.60;55.40;;;;;;4955171;28;88543;-43
2023/10/15 13:25:12;;;;;;;;;;;18.70;55.40;;;;;;4959030;28;87150;-43
2023/10/15 13:27:38;;;;;;;;;;;18.70;55.40;;;;;;4952896;28;87905;-44
2023/10/15 13:30:04;;;;;;;;;;;18.70;55.40;;;;;;4956349;28;88004;-44
2023/10/15 13:32:29;;;;;;;;;;;18.70;55.50;;;;;;4955472;28;88544;-46
2023/10/15 13:34:55;;;;;;;;;;;18.70;55.70;;;;;;4954572;28;88101;-44
2023/10/15 13:37:21;;;;;;;;;;;18.70;55.70;;;;;;4956845;28;87197;-44
2023/10/15 13:39:49;;;;;;;;;;;18.70;55.80;;;;;;4955427;28;87152;-44
2023/10/15 13:42:15;;;;;;;;;;;18.70;55.80;;;;;;4951933;28;87985;-45
2023/10/15 13:44:41;;;;;;;;;;;18.70;55.90;;;;;;4952461;28;87358;-43
2023/10/15 13:47:06;;;;;;;;;;;18.70;55.90;;;;;;4957590;28;87479;-45
2023/10/15 13:49:32;;;;;;;;;;;18.70;56.00;;;;;;4959185;28;87228;-44
2023/10/15 13:51:57;;;;;;;;;;;18.60;56.00;;;;;;4955369;28;87333;-43
2023/10/15 13:54:23;;;;;;;;;;;18.60;56.00;;;;;;4954100;28;89712;-44
2023/10/15 13:56:49;;;;;;;;;;;18.60;56.00;;;;;;4953584;28;87367;-44
2023/10/15 13:59:14;;;;;;;;;;;18.70;56.00;;;;;;4956465;28;87184;-43
2023/10/15 14:01:43;;;;;;;;;;;18.70;56.00;;;;;;4951919;28;88545;-44
2023/10/15 14:04:09;;;;;;;;;;;18.70;56.00;;;;;;4959865;28;87284;-42
2023/10/15 14:06:35;;;;;;;;;;;18.60;56.00;;;;;;4955880;28;87073;-43
2023/10/15 14:09:01;;;;;;;;;;;18.70;56.20;;;;;;4958927;28;88108;-43
2023/10/15 14:11:29;;;;;;;;;;;18.70;56.20;;;;;;4953563;28;87383;-45
2023/10/15 14:13:55;;;;;;;;;;;18.70;56.10;;;;;;4954417;28;87939;-44
2023/10/15 14:16:22;;;;;;;;;;;18.70;56.20;;;;;;4956117;28;87176;-44
2023/10/15 14:18:48;;;;;;;;;;;18.70;56.20;;;;;;4953664;28;89287;-44
2023/10/15 14:21:16;;;;;;;;;;;18.70;56.20;;;;;;4957829;28;89740;-43
2023/10/15 14:23:42;;;;;;;;;;;18.60;53.30;;;;;;4955921;28;88730;-41
2023/10/15 14:26:09;;;;;;;;;;;18.60;53.50;;;;;;4953748;28;88942;-41
2023/10/15 14:28:34;;;;;;;;;;;18.70;52.40;;;;;;4954349;28;87625;-42
2023/10/15 14:31:00;;;;;;;;;;;18.70;52.90;;;;;;4955043;28;87163;-43